sensor_id;sensor_type;location;lat;lon;timestamp;pressure;altitude;pressure_sealevel;temperature;humidity
25650;BME280;13505;45.196;5.696;2022-11-04T05:04:47;98733.66;;;8.55;98.02
25650;BME280;13505;45.196;5.696;2022-11-04T05:09:38;98716.16;;;8.54;99.42
25650;BME280;13505;45.196;5.696;2022-11-04T05:14:28;98709.34;;;8.48;98.37
25650;BME280;13505;45.196;5.696;2022-11-04T05:19:19;98720.88;;;8.46;98.85
25650;BME280;13505;45.196;5.696;2022-11-04T05:24:09;98715.31;;;8.54;98.44
25650;BME280;13505;45.196;5.696;2022-11-04T05:29:00;98705.78;;;8.51;100.00
25650;BME280;13505;45.196;5.696;2022-11-04T05:33:50;98697.75;;;8.54;100.00
25650;BME280;13505;45.196;5.696;2022-11-04T05:38:41;98696.41;;;8.64;100.00
25650;BME280;13505;45.196;5.696;2022-11-04T05:43:32;98703.25;;;8.69;100.00
25650;BME280;13505;45.196;5.696;2022-11-04T05:48:22;98695.47;;;8.65;100.00
25650;BME280;13505;45.196;5.696;2022-11-04T05:53:13;98695.94;;;8.35;100.00
25650;BME280;13505;45.196;5.696;2022-11-04T05:58:03;98698.47;;;8.37;100.00
25650;BME280;13505;45.196;5.696;2022-11-04T06:02:54;98681.13;;;8.73;100.00
25650;BME280;13505;45.196;5.696;2022-11-04T06:07:47;98676.09;;;8.68;100.00
25650;BME280;13505;45.196;5.696;2022-11-04T06:12:37;98663.81;;;8.69;100.00
25650;BME280;13505;45.196;5.696;2022-11-04T06:17:27;98679.59;;;8.69;100.00
25650;BME280;13505;45.196;5.696;2022-11-04T06:22:18;98683.78;;;8.73;100.00
25650;BME280;13505;45.196;5.696;2022-11-04T06:27:09;98673.97;;;8.76;100.00
25650;BME280;13505;45.196;5.696;2022-11-04T06:32:00;98656.22;;;8.82;100.00
25650;BME280;13505;45.196;5.696;2022-11-04T06:36:50;98640.69;;;8.94;100.00
25650;BME280;13505;45.196;5.696;2022-11-04T06:41:41;98648.69;;;9.11;100.00
25650;BME280;13505;45.196;5.696;2022-11-04T06:46:39;98648.94;;;9.24;100.00
25650;BME280;13505;45.196;5.696;2022-11-04T06:51:30;98658.16;;;9.32;100.00
25650;BME280;13505;45.196;5.696;2022-11-04T06:56:20;98645.78;;;9.34;100.00
25650;BME280;13505;45.196;5.696;2022-11-04T07:01:11;98650.09;;;9.18;100.00
25650;BME280;13505;45.196;5.696;2022-11-04T07:06:06;98652.56;;;9.03;100.00
25650;BME280;13505;45.196;5.696;2022-11-04T07:10:56;98641.13;;;9.22;100.00
25650;BME280;13505;45.196;5.696;2022-11-04T07:15:47;98640.06;;;9.26;100.00
25650;BME280;13505;45.196;5.696;2022-11-04T07:20:37;98641.38;;;9.35;100.00
25650;BME280;13505;45.196;5.696;2022-11-04T07:25:27;98630.31;;;9.63;100.00
25650;BME280;13505;45.196;5.696;2022-11-04T07:30:18;98630.25;;;9.83;100.00
25650;BME280;13505;45.196;5.696;2022-11-04T07:35:11;98615.44;;;9.80;100.00
25650;BME280;13505;45.196;5.696;2022-11-04T07:40:03;98611.09;;;9.79;100.00
25650;BME280;13505;45.196;5.696;2022-11-04T07:44:53;98612.09;;;9.94;100.00
25650;BME280;13505;45.196;5.696;2022-11-04T07:49:44;98615.34;;;9.82;100.00
25650;BME280;13505;45.196;5.696;2022-11-04T07:54:34;98610.91;;;10.00;100.00
25650;BME280;13505;45.196;5.696;2022-11-04T07:59:24;98603.28;;;9.77;99.88
25650;BME280;13505;45.196;5.696;2022-11-04T08:04:15;98585.41;;;10.00;100.00
25650;BME280;13505;45.196;5.696;2022-11-04T08:09:05;98581.75;;;10.03;99.07
25650;BME280;13505;45.196;5.696;2022-11-04T08:13:55;98593.59;;;10.12;99.49
25650;BME280;13505;45.196;5.696;2022-11-04T08:18:46;98575.00;;;10.15;99.65
25650;BME280;13505;45.196;5.696;2022-11-04T08:23:37;98567.00;;;10.16;99.24
25650;BME280;13505;45.196;5.696;2022-11-04T08:28:28;98572.53;;;10.28;98.92
25650;BME280;13505;45.196;5.696;2022-11-04T08:33:18;98560.91;;;10.32;98.48
25650;BME280;13505;45.196;5.696;2022-11-04T08:38:09;98547.13;;;10.43;98.83
25650;BME280;13505;45.196;5.696;2022-11-04T08:42:59;98546.06;;;10.47;98.89
25650;BME280;13505;45.196;5.696;2022-11-04T08:47:49;98526.38;;;10.21;98.34
25650;BME280;13505;45.196;5.696;2022-11-04T08:52:39;98532.41;;;10.39;98.33
25650;BME280;13505;45.196;5.696;2022-11-04T08:57:30;98518.72;;;10.32;95.93
25650;BME280;13505;45.196;5.696;2022-11-04T09:02:20;98506.66;;;10.44;97.29
25650;BME280;13505;45.196;5.696;2022-11-04T09:07:11;98505.56;;;10.48;96.40
25650;BME280;13505;45.196;5.696;2022-11-04T09:12:01;98495.84;;;10.49;96.89
25650;BME280;13505;45.196;5.696;2022-11-04T09:16:51;98491.19;;;10.54;96.44
25650;BME280;13505;45.196;5.696;2022-11-04T09:21:43;98495.94;;;10.63;97.43
25650;BME280;13505;45.196;5.696;2022-11-04T09:26:33;98477.22;;;10.68;97.56
25650;BME280;13505;45.196;5.696;2022-11-04T09:31:26;98471.56;;;10.74;98.90
25650;BME280;13505;45.196;5.696;2022-11-04T09:36:17;98468.75;;;10.77;99.97
25650;BME280;13505;45.196;5.696;2022-11-04T09:41:24;98465.03;;;10.65;99.86
25650;BME280;13505;45.196;5.696;2022-11-04T09:46:19;98462.25;;;10.36;97.13
25650;BME280;13505;45.196;5.696;2022-11-04T09:51:10;98463.44;;;10.30;93.10
25650;BME280;13505;45.196;5.696;2022-11-04T09:56:05;98464.56;;;10.58;93.60
25650;BME280;13505;45.196;5.696;2022-11-04T10:01:04;98463.72;;;10.72;93.09
25650;BME280;13505;45.196;5.696;2022-11-04T10:06:08;98473.75;;;10.82;94.44
25650;BME280;13505;45.196;5.696;2022-11-04T10:22:02;98478.75;;;10.86;99.75
25650;BME280;13505;45.196;5.696;2022-11-04T10:27:00;98454.34;;;10.83;100.00
25650;BME280;13505;45.196;5.696;2022-11-04T10:31:53;98474.84;;;10.94;100.00
25650;BME280;13505;45.196;5.696;2022-11-04T10:36:46;98477.88;;;11.02;100.00
25650;BME280;13505;45.196;5.696;2022-11-04T10:41:39;98477.63;;;11.07;100.00
25650;BME280;13505;45.196;5.696;2022-11-04T10:51:38;98472.59;;;11.02;100.00
25650;BME280;13505;45.196;5.696;2022-11-04T11:01:30;98457.78;;;10.99;100.00
25650;BME280;13505;45.196;5.696;2022-11-04T11:06:32;98453.81;;;10.92;100.00
25650;BME280;13505;45.196;5.696;2022-11-04T11:16:30;98467.56;;;10.67;100.00
25650;BME280;13505;45.196;5.696;2022-11-04T11:21:21;98479.44;;;10.59;100.00
25650;BME280;13505;45.196;5.696;2022-11-04T11:26:18;98506.16;;;10.53;100.00
25650;BME280;13505;45.196;5.696;2022-11-04T11:31:12;98514.31;;;10.49;100.00
25650;BME280;13505;45.196;5.696;2022-11-04T11:36:16;98516.38;;;10.43;100.00
25650;BME280;13505;45.196;5.696;2022-11-04T11:41:09;98522.59;;;10.42;100.00
25650;BME280;13505;45.196;5.696;2022-11-04T11:46:01;98522.59;;;10.42;100.00
25650;BME280;13505;45.196;5.696;2022-11-04T11:50:53;98519.50;;;10.50;100.00
25650;BME280;13505;45.196;5.696;2022-11-04T11:56:03;98526.28;;;10.54;100.00
25650;BME280;13505;45.196;5.696;2022-11-04T12:01:11;98521.53;;;10.61;100.00
25650;BME280;13505;45.196;5.696;2022-11-04T12:11:22;98527.59;;;10.63;100.00
25650;BME280;13505;45.196;5.696;2022-11-04T12:21:31;98527.03;;;10.72;100.00
25650;BME280;13505;45.196;5.696;2022-11-04T12:26:51;98529.59;;;10.74;99.01
25650;BME280;13505;45.196;5.696;2022-11-04T12:31:53;98527.47;;;10.81;98.65
25650;BME280;13505;45.196;5.696;2022-11-04T12:36:52;98529.94;;;10.84;98.89
25650;BME280;13505;45.196;5.696;2022-11-04T12:47:21;98528.91;;;11.17;97.94
25650;BME280;13505;45.196;5.696;2022-11-04T13:03:16;98539.03;;;11.39;95.45
25650;BME280;13505;45.196;5.696;2022-11-04T13:13:00;98543.69;;;11.50;95.55
25650;BME280;13505;45.196;5.696;2022-11-04T13:17:57;98526.63;;;11.56;94.44
25650;BME280;13505;45.196;5.696;2022-11-04T13:22:50;98528.41;;;11.55;94.59
25650;BME280;13505;45.196;5.696;2022-11-04T13:27:44;98530.00;;;11.43;96.00
25650;BME280;13505;45.196;5.696;2022-11-04T13:32:44;98535.88;;;11.18;92.49
25650;BME280;13505;45.196;5.696;2022-11-04T13:37:46;98533.53;;;11.28;91.82
25650;BME280;13505;45.196;5.696;2022-11-04T13:47:35;98552.69;;;11.31;94.21
25650;BME280;13505;45.196;5.696;2022-11-04T13:52:30;98557.03;;;11.33;93.11
25650;BME280;13505;45.196;5.696;2022-11-04T13:57:26;98559.88;;;11.29;95.09
25650;BME280;13505;45.196;5.696;2022-11-04T14:07:12;98579.69;;;10.90;96.78
25650;BME280;13505;45.196;5.696;2022-11-04T14:16:58;98583.47;;;10.70;89.71
25650;BME280;13505;45.196;5.696;2022-11-04T14:22:04;98591.03;;;10.76;88.19
25650;BME280;13505;45.196;5.696;2022-11-04T14:26:57;98589.31;;;10.75;88.31
25650;BME280;13505;45.196;5.696;2022-11-04T14:31:52;98598.25;;;10.72;87.18
25650;BME280;13505;45.196;5.696;2022-11-04T14:36:43;98593.50;;;10.79;90.97
25650;BME280;13505;45.196;5.696;2022-11-04T14:46:33;98599.06;;;10.25;89.01
25650;BME280;13505;45.196;5.696;2022-11-04T14:51:27;98598.38;;;10.37;90.65
25650;BME280;13505;45.196;5.696;2022-11-04T14:56:22;98593.22;;;10.36;91.03
25650;BME280;13505;45.196;5.696;2022-11-04T15:01:14;98603.53;;;10.07;89.99
25650;BME280;13505;45.196;5.696;2022-11-04T15:06:06;98612.00;;;10.29;90.74
25650;BME280;13505;45.196;5.696;2022-11-04T15:10:59;98616.44;;;10.45;91.79
25650;BME280;13505;45.196;5.696;2022-11-04T15:15:52;98612.56;;;10.18;93.67
25650;BME280;13505;45.196;5.696;2022-11-04T15:20:55;98605.78;;;10.30;96.16
25650;BME280;13505;45.196;5.696;2022-11-04T15:25:47;98621.66;;;10.46;92.95
25650;BME280;13505;45.196;5.696;2022-11-04T15:30:38;98633.91;;;10.80;93.95
25650;BME280;13505;45.196;5.696;2022-11-04T15:35:31;98636.97;;;10.88;93.88
25650;BME280;13505;45.196;5.696;2022-11-04T15:40:24;98636.03;;;11.05;94.31
25650;BME280;13505;45.196;5.696;2022-11-04T15:50:23;98648.00;;;11.27;94.10
25650;BME280;13505;45.196;5.696;2022-11-04T15:55:23;98646.81;;;11.33;92.45
25650;BME280;13505;45.196;5.696;2022-11-04T16:09:55;98670.41;;;10.87;93.94
25650;BME280;13505;45.196;5.696;2022-11-04T16:14:47;98671.59;;;11.14;93.40
25650;BME280;13505;45.196;5.696;2022-11-04T16:19:37;98674.22;;;11.30;92.60
25650;BME280;13505;45.196;5.696;2022-11-04T16:24:32;98679.25;;;11.35;90.40
25650;BME280;13505;45.196;5.696;2022-11-04T16:29:26;98676.63;;;11.19;90.49
25650;BME280;13505;45.196;5.696;2022-11-04T16:34:17;98699.03;;;11.27;92.15
25650;BME280;13505;45.196;5.696;2022-11-04T16:39:07;98706.81;;;11.45;92.71
25650;BME280;13505;45.196;5.696;2022-11-04T16:43:58;98711.25;;;11.61;90.22
25650;BME280;13505;45.196;5.696;2022-11-04T16:48:48;98703.06;;;11.65;86.21
25650;BME280;13505;45.196;5.696;2022-11-04T16:53:39;98705.72;;;11.49;85.20
25650;BME280;13505;45.196;5.696;2022-11-04T16:58:29;98704.59;;;11.53;87.54
25650;BME280;13505;45.196;5.696;2022-11-04T17:03:19;98703.53;;;11.09;83.32
25650;BME280;13505;45.196;5.696;2022-11-04T17:08:12;98709.41;;;11.30;87.23
25650;BME280;13505;45.196;5.696;2022-11-04T17:13:03;98714.94;;;11.26;87.12
25650;BME280;13505;45.196;5.696;2022-11-04T17:17:53;98716.91;;;10.90;86.64
25650;BME280;13505;45.196;5.696;2022-11-04T17:22:44;98717.34;;;10.49;86.77
25650;BME280;13505;45.196;5.696;2022-11-04T17:27:35;98721.00;;;10.28;90.49
25650;BME280;13505;45.196;5.696;2022-11-04T17:32:26;98720.38;;;10.23;91.38
25650;BME280;13505;45.196;5.696;2022-11-04T17:37:16;98720.84;;;10.14;92.39
25650;BME280;13505;45.196;5.696;2022-11-04T17:42:06;98732.47;;;10.10;93.88
25650;BME280;13505;45.196;5.696;2022-11-04T17:47:15;98746.75;;;10.05;94.23
25650;BME280;13505;45.196;5.696;2022-11-04T17:52:06;98749.47;;;10.04;93.63
25650;BME280;13505;45.196;5.696;2022-11-04T17:56:57;98763.50;;;10.04;94.78
25650;BME280;13505;45.196;5.696;2022-11-04T18:01:47;98774.16;;;10.01;96.57
25650;BME280;13505;45.196;5.696;2022-11-04T18:06:38;98791.06;;;9.97;98.45
25650;BME280;13505;45.196;5.696;2022-11-04T18:11:29;98799.75;;;9.99;99.15
25650;BME280;13505;45.196;5.696;2022-11-04T18:16:39;98804.31;;;9.96;99.68
25650;BME280;13505;45.196;5.696;2022-11-04T18:21:31;98809.91;;;9.89;100.00
25650;BME280;13505;45.196;5.696;2022-11-04T18:26:21;98808.03;;;9.55;100.00
25650;BME280;13505;45.196;5.696;2022-11-04T18:31:21;98814.34;;;9.70;100.00
25650;BME280;13505;45.196;5.696;2022-11-04T18:36:12;98828.53;;;9.48;100.00
25650;BME280;13505;45.196;5.696;2022-11-04T18:41:02;98831.31;;;9.64;100.00
25650;BME280;13505;45.196;5.696;2022-11-04T18:45:53;98841.84;;;9.64;99.80
25650;BME280;13505;45.196;5.696;2022-11-04T18:50:43;98839.97;;;9.66;99.87
25650;BME280;13505;45.196;5.696;2022-11-04T18:55:33;98834.72;;;9.66;99.27
25650;BME280;13505;45.196;5.696;2022-11-04T19:00:24;98842.06;;;9.59;99.24
25650;BME280;13505;45.196;5.696;2022-11-04T19:05:15;98848.88;;;9.25;100.00
25650;BME280;13505;45.196;5.696;2022-11-04T19:10:05;98862.94;;;9.05;100.00
25650;BME280;13505;45.196;5.696;2022-11-04T19:14:56;98873.28;;;8.89;100.00
25650;BME280;13505;45.196;5.696;2022-11-04T19:19:46;98881.09;;;9.11;100.00
25650;BME280;13505;45.196;5.696;2022-11-04T19:24:37;98870.56;;;9.30;99.74
25650;BME280;13505;45.196;5.696;2022-11-04T19:29:27;98865.97;;;9.35;98.11
25650;BME280;13505;45.196;5.696;2022-11-04T19:34:18;98862.41;;;9.37;97.48
25650;BME280;13505;45.196;5.696;2022-11-04T19:39:08;98867.72;;;9.35;96.60
25650;BME280;13505;45.196;5.696;2022-11-04T19:44:00;98881.25;;;9.27;96.13
25650;BME280;13505;45.196;5.696;2022-11-04T19:48:51;98882.06;;;9.08;95.22
25650;BME280;13505;45.196;5.696;2022-11-04T19:53:41;98896.28;;;9.04;95.13
25650;BME280;13505;45.196;5.696;2022-11-04T19:58:31;98899.72;;;9.06;96.22
25650;BME280;13505;45.196;5.696;2022-11-04T20:03:21;98922.59;;;9.04;95.70
25650;BME280;13505;45.196;5.696;2022-11-04T20:08:12;98936.53;;;9.06;94.94
25650;BME280;13505;45.196;5.696;2022-11-04T20:13:02;98942.44;;;9.12;95.08
25650;BME280;13505;45.196;5.696;2022-11-04T20:18:11;98948.72;;;9.09;95.21
25650;BME280;13505;45.196;5.696;2022-11-04T20:23:02;98974.09;;;9.10;94.91
25650;BME280;13505;45.196;5.696;2022-11-04T20:27:52;98983.91;;;9.06;94.65
25650;BME280;13505;45.196;5.696;2022-11-04T20:32:42;98986.38;;;9.30;94.70
25650;BME280;13505;45.196;5.696;2022-11-04T20:37:33;99006.13;;;9.20;93.41
25650;BME280;13505;45.196;5.696;2022-11-04T20:42:23;99009.72;;;8.97;94.06
25650;BME280;13505;45.196;5.696;2022-11-04T20:47:13;99014.09;;;8.98;94.26
25650;BME280;13505;45.196;5.696;2022-11-04T20:52:06;99023.50;;;9.03;93.82
25650;BME280;13505;45.196;5.696;2022-11-04T20:56:56;99041.66;;;9.10;93.43
25650;BME280;13505;45.196;5.696;2022-11-04T21:01:47;99055.13;;;9.02;92.89
25650;BME280;13505;45.196;5.696;2022-11-04T21:06:39;99048.63;;;8.68;94.76
25650;BME280;13505;45.196;5.696;2022-11-04T21:11:29;99053.19;;;8.85;95.05
25650;BME280;13505;45.196;5.696;2022-11-04T21:16:21;99066.06;;;8.46;96.19
25650;BME280;13505;45.196;5.696;2022-11-04T21:21:14;99068.19;;;8.83;96.08
25650;BME280;13505;45.196;5.696;2022-11-04T21:26:13;99060.13;;;8.87;95.61
25650;BME280;13505;45.196;5.696;2022-11-04T21:31:07;99071.88;;;8.99;95.87
25650;BME280;13505;45.196;5.696;2022-11-04T21:36:06;99078.16;;;8.74;95.85
25650;BME280;13505;45.196;5.696;2022-11-04T21:41:03;99085.06;;;8.77;96.40
25650;BME280;13505;45.196;5.696;2022-11-04T21:51:05;99103.66;;;8.94;94.62
25650;BME280;13505;45.196;5.696;2022-11-04T21:56:29;99114.66;;;9.04;95.13
25650;BME280;13505;45.196;5.696;2022-11-04T22:01:24;99119.56;;;9.14;94.30
25650;BME280;13505;45.196;5.696;2022-11-04T22:06:15;99121.75;;;9.02;94.63
25650;BME280;13505;45.196;5.696;2022-11-04T22:11:23;99131.38;;;9.03;94.75
25650;BME280;13505;45.196;5.696;2022-11-04T22:16:19;99134.66;;;9.08;93.23
25650;BME280;13505;45.196;5.696;2022-11-04T22:21:13;99129.59;;;9.04;93.08
25650;BME280;13505;45.196;5.696;2022-11-04T22:26:10;99125.66;;;9.14;93.70
25650;BME280;13505;45.196;5.696;2022-11-04T22:35:55;99149.47;;;8.89;94.87
25650;BME280;13505;45.196;5.696;2022-11-04T22:40:53;99134.09;;;9.00;94.67
25650;BME280;13505;45.196;5.696;2022-11-04T22:45:43;99145.63;;;8.98;93.64
25650;BME280;13505;45.196;5.696;2022-11-04T22:50:34;99152.97;;;8.89;93.83
25650;BME280;13505;45.196;5.696;2022-11-04T22:55:25;99163.34;;;8.92;93.86
